Latest Weather Observations for Lihou Reef Lighthouse

IDQ60801

Issued at 7:52 pm EST Saturday 22 February 2020 (issued every 10 minutes, with the page automatically refreshed every 10 minutes)

About weather observations | Map of weather stations | Latest weather observations for QLD | Other Formats
Station Details ID: 200880 Name: LIHOU REEF LIGHTHOUSE Lat: -17.13 Lon: 152.15 Height: 10.26 m
Data from the previous 72 hours. | See also: Recent months at Lihou Reef Lighthouse
Date/Time
EST
Temp
°C
App
Temp
°C
Dew
Point
°C
Rel
Hum
%
Delta-T
°C
Wind Press
QNH
hPa
Press
MSL
hPa
Rain since
9am
mm
Dir  Spd
km/h
Gust
km/h
Spd
kts
Gust
kts
22/07:30pm 29.7 - - - - ENE 24 28 13 15 1010.9 1010.8 -
22/07:00pm 29.6 - - - - E 24 26 13 14 1010.7 1010.6 -
22/06:30pm 29.7 - - - - E 24 28 13 15 1010.2 1010.1 -
22/06:00pm 30.0 - - - - E 28 32 15 17 1009.9 1009.8 -
22/05:30pm 30.0 - - - - E 24 28 13 15 1009.7 1009.6 -
22/05:00pm 30.1 - - - - E 24 28 13 15 1009.6 1009.5 -
22/04:30pm 30.1 - - - - E 24 28 13 15 1009.4 1009.3 -
22/04:00pm 30.1 - - - - E 26 30 14 16 1009.2 1009.1 -
22/03:30pm 30.1 - - - - E 24 28 13 15 1009.2 1009.1 -
22/03:00pm 29.7 - - - - ENE 22 26 12 14 1009.3 1009.2 -
22/02:30pm 30.1 - - - - E 22 26 12 14 1009.6 1009.5 -
22/02:00pm 29.6 - - - - E 19 22 10 12 1010.0 1009.9 -
22/01:30pm 29.4 - - - - E 30 35 16 19 1010.2 1010.1 -
22/01:00pm 29.9 - - - - E 26 30 14 16 1010.5 1010.4 -
22/12:30pm 29.9 - - - - E 24 30 13 16 1011.0 1010.9 -
22/12:00pm 29.8 - - - - E 24 28 13 15 1011.4 1011.3 -
22/11:30am 29.7 - - - - E 22 30 12 16 1011.8 1011.7 -
22/11:00am 29.9 - - - - E 22 28 12 15 1011.9 1011.8 -
22/10:30am 29.8 - - - - E 24 28 13 15 1011.9 1011.8 -
22/10:00am 29.8 - - - - E 20 24 11 13 1011.9 1011.8 -
22/09:30am 29.9 - - - - E 22 26 12 14 1011.8 1011.7 -
22/09:00am 29.9 - - - - E 22 26 12 14 1011.8 1011.7 -
22/08:30am 29.9 - - - - E 20 24 11 13 1011.5 1011.4 -
22/08:00am 29.9 - - - - E 19 22 10 12 1011.5 1011.4 -
22/07:30am 29.7 - - - - E 19 24 10 13 1011.1 1011.0 -
22/07:00am 29.6 - - - - E 20 22 11 12 1010.8 1010.7 -
22/06:30am 29.4 - - - - ENE 17 20 9 11 1010.5 1010.4 -
22/06:00am 29.3 - - - - E 19 24 10 13 1010.1 1010.0 -
22/05:30am 29.3 - - - - E 19 22 10 12 1009.9 1009.8 -
22/05:00am 29.3 - - - - E 19 22 10 12 1009.8 1009.7 -
22/04:30am 29.4 - - - - E 17 24 9 13 1009.7 1009.6 -
22/04:00am 29.4 - - - - E 19 22 10 12 1009.7 1009.6 -
22/03:30am 29.4 - - - - E 17 20 9 11 1009.9 1009.8 -
22/03:00am 29.5 - - - - E 17 19 9 10 1009.9 1009.8 -
22/02:30am 29.4 - - - - ENE 13 17 7 9 1010.0 1009.9 -
22/02:00am 29.0 - - - - ENE 13 17 7 9 1010.2 1010.1 -
22/01:30am 29.1 - - - - E 22 26 12 14 1010.4 1010.3 -
22/01:00am 29.6 - - - - E 15 17 8 9 1010.7 1010.6 -
22/12:30am 29.7 - - - - E 17 20 9 11 1011.0 1010.9 -
22/12:00am 29.7 - - - - E 17 20 9 11 1011.2 1011.1 -
 
Date/Time
EST
Temp
°C
App
Temp
°C
Dew
Point
°C
Rel
Hum
%
Delta-T
°C
Wind Press
QNH
hPa
Press
MSL
hPa
Rain since
9am
mm
Dir  Spd
km/h
Gust
km/h
Spd
kts
Gust
kts
21/11:30pm 29.8 - - - - E 19 20 10 11 1011.3 1011.2 -
21/11:00pm 29.3 - - - - E 11 15 6 8 1011.6 1011.5 -
21/10:30pm 29.2 - - - - ENE 11 13 6 7 1011.8 1011.7 -
21/10:00pm 28.9 - - - - NE 9 13 5 7 1011.7 1011.6 -
21/09:30pm 28.7 - - - - NNE 19 22 10 12 1011.3 1011.2 -
21/09:00pm 28.3 - - - - NE 26 33 14 18 1011.1 1011.0 -
21/08:53pm 28.1 - - - - ENE 22 33 12 18 1011.0 1010.9 -
21/08:30pm 29.2 - - - - E 9 13 5 7 1011.0 1010.9 -
21/08:00pm 28.7 - - - - NE 15 22 8 12 1010.6 1010.5 -
21/07:30pm 28.6 - - - - ESE 15 19 8 10 1010.1 1010.0 -
21/07:00pm 29.7 - - - - ENE 7 9 4 5 1009.7 1009.6 -
21/06:30pm 29.6 - - - - NE 6 9 3 5 1009.4 1009.3 -
21/06:00pm 29.6 - - - - NE 6 7 3 4 1009.2 1009.1 -
21/05:30pm 29.3 - - - - NNE 11 15 6 8 1008.9 1008.8 -
21/05:00pm 29.2 - - - - NE 17 26 9 14 1008.5 1008.4 -
21/04:30pm 29.9 - - - - ENE 9 11 5 6 1008.3 1008.2 -
21/04:00pm 29.9 - - - - ENE 11 13 6 7 1008.3 1008.2 -
21/03:30pm 30.0 - - - - ENE 11 15 6 8 1008.2 1008.1 -
21/03:00pm 29.9 - - - - E 11 15 6 8 1008.3 1008.2 -
21/02:30pm 29.9 - - - - ENE 13 15 7 8 1008.4 1008.3 -
21/02:00pm 29.8 - - - - NE 13 17 7 9 1008.5 1008.4 -
21/01:30pm 29.9 - - - - ENE 15 19 8 10 1008.5 1008.4 -
21/01:00pm 29.7 - - - - ENE 13 19 7 10 1008.9 1008.8 -
21/12:30pm 29.8 - - - - ENE 13 15 7 8 1009.3 1009.2 -
21/12:00pm 29.8 - - - - E 15 19 8 10 1009.4 1009.3 -
21/11:30am 29.9 - - - - ENE 15 17 8 9 1009.8 1009.7 -
21/11:00am 29.8 - - - - ENE 15 17 8 9 1009.9 1009.8 -
21/10:30am 29.8 - - - - ENE 13 15 7 8 1010.3 1010.2 -
21/10:00am 29.8 - - - - ENE 11 13 6 7 1010.4 1010.3 -
21/09:30am 29.7 - - - - NE 13 17 7 9 1010.6 1010.5 -
21/09:00am 29.5 - - - - E 11 13 6 7 1010.6 1010.5 -
21/08:30am 29.4 - - - - ENE 11 13 6 7 1010.4 1010.3 -
21/08:00am 29.4 - - - - ENE 13 15 7 8 1009.9 1009.8 -
21/07:30am 28.9 - - - - ENE 9 11 5 6 1009.7 1009.6 -
21/07:00am 28.5 - - - - ENE 15 19 8 10 1009.5 1009.4 -
21/06:30am 28.3 - - - - E 17 20 9 11 1009.3 1009.2 -
21/06:00am 29.6 - - - - E 7 13 4 7 1008.8 1008.7 -
21/05:30am 29.5 - - - - ENE 7 11 4 6 1008.4 1008.3 -
21/05:00am 29.5 - - - - ENE 9 11 5 6 1008.1 1008.0 -
21/04:30am 29.5 - - - - NE 9 13 5 7 1007.8 1007.7 -
21/04:00am 29.6 - - - - ENE 9 11 5 6 1007.7 1007.6 -
21/03:30am 29.1 - - - - E 11 15 6 8 1007.6 1007.5 -
21/03:00am 28.6 - - - - CALM 0 0 0 0 1007.7 1007.6 -
21/02:30am 28.4 - - - - CALM 0 2 0 1 1007.9 1007.8 -
21/02:00am 27.9 - - - - W 6 9 3 5 1008.2 1008.1 -
21/01:30am 27.7 - - - - SSW 4 7 2 4 1008.5 1008.4 -
21/01:00am 27.1 - - - - CALM 0 2 0 1 1008.8 1008.7 -
21/12:30am 28.2 - - - - N 6 33 3 18 1008.8 1008.7 -
21/12:00am 29.2 - - - - CALM 0 6 0 3 1009.2 1009.1 -
 
Date/Time
EST
Temp
°C
App
Temp
°C
Dew
Point
°C
Rel
Hum
%
Delta-T
°C
Wind Press
QNH
hPa
Press
MSL
hPa
Rain since
9am
mm
Dir  Spd
km/h
Gust
km/h
Spd
kts
Gust
kts
20/11:30pm 29.3 - - - - CALM 0 7 0 4 1009.4 1009.3 -
20/11:00pm 29.0 - - - - CALM 0 0 0 0 1009.5 1009.4 -
20/10:30pm 29.3 - - - - CALM 0 0 0 0 1009.5 1009.4 -
20/10:00pm 29.1 - - - - CALM 0 0 0 0 1009.3 1009.2 -
20/09:30pm 28.9 - - - - CALM 0 2 0 1 1009.3 1009.2 -
20/09:00pm 29.1 - - - - CALM 0 2 0 1 1008.9 1008.8 -
20/08:30pm 28.8 - - - - CALM 0 4 0 2 1008.8 1008.7 -
20/08:00pm 28.6 - - - - CALM 0 2 0 1 1008.4 1008.3 -
20/07:30pm 29.5 - - - - CALM 0 6 0 3 1008.0 1007.9 -
20/07:00pm 29.6 - - - - CALM 0 17 0 9 1007.6 1007.5 -
20/06:30pm 29.8 - - - - CALM 0 7 0 4 1007.2 1007.1 -
20/06:00pm 30.9 - - - - CALM 0 15 0 8 1007.1 1007.0 -
20/05:30pm 31.0 - - - - CALM 0 0 0 0 1006.8 1006.7 -
20/05:00pm 29.9 - - - - CALM 0 0 0 0 1006.4 1006.3 -
20/04:30pm 31.4 - - - - CALM 0 2 0 1 1006.3 1006.2 -
20/04:00pm 31.5 - - - - CALM 0 2 0 1 1006.3 1006.2 -
20/03:30pm 29.8 - - - - CALM 0 2 0 1 1006.1 1006.0 -
20/03:00pm 30.0 - - - - ENE 2 2 1 1 1006.2 1006.1 -
20/02:30pm 29.7 - - - - E 2 6 1 3 1006.3 1006.2 -
20/02:00pm 29.9 - - - - ENE 2 6 1 3 1006.5 1006.4 -
20/01:30pm 29.5 - - - - NE 4 7 2 4 1006.9 1006.8 -
20/01:00pm 29.4 - - - - NNE 6 9 3 5 1007.1 1007.0 -
20/12:30pm 30.2 - - - - CALM 0 2 0 1 1007.5 1007.4 -
20/12:00pm 29.5 - - - - ENE 2 6 1 3 1007.8 1007.7 -
20/11:30am 29.9 - - - - ENE 2 4 1 2 1008.0 1007.9 -
20/11:00am 29.7 - - - - ENE 2 6 1 3 1008.2 1008.1 -
20/10:30am 29.7 - - - - E 4 6 2 3 1008.4 1008.3 -
20/10:00am 29.6 - - - - E 2 6 1 3 1008.3 1008.2 -
20/09:30am 29.6 - - - - ENE 6 7 3 4 1008.4 1008.3 -
20/09:00am 29.5 - - - - ENE 4 7 2 4 1008.2 1008.1 -
20/08:30am 29.5 - - - - ENE 6 9 3 5 1008.0 1007.9 -
20/08:00am 29.4 - - - - E 6 7 3 4 1007.8 1007.7 -
20/07:30am 29.4 - - - - ENE 6 9 3 5 1007.3 1007.2 -
20/07:00am 29.6 - - - - E 6 7 3 4 1007.0 1006.9 -
20/06:30am 29.3 - - - - E 6 9 3 5 1006.6 1006.5 -
20/06:00am 28.9 - - - - ENE 6 9 3 5 1006.0 1005.9 -
20/05:30am 28.8 - - - - ENE 6 7 3 4 1006.0 1005.9 -
20/05:00am 28.7 - - - - CALM 0 0 0 0 1005.9 1005.8 -
20/04:30am 28.8 - - - - E 4 6 2 3 1005.5 1005.4 -
20/04:00am 28.8 - - - - E 4 7 2 4 1005.5 1005.4 -
20/03:30am 28.7 - - - - E 4 7 2 4 1005.6 1005.5 -
20/03:00am 28.8 - - - - E 2 4 1 2 1005.8 1005.7 -
20/02:30am 28.9 - - - - E 4 7 2 4 1006.0 1005.9 -
20/02:00am 28.9 - - - - E 4 6 2 3 1006.1 1006.0 -
20/01:30am 28.9 - - - - E 4 6 2 3 1006.3 1006.2 -
20/01:00am 29.0 - - - - E 4 6 2 3 1006.6 1006.5 -
20/12:30am 29.1 - - - - E 4 6 2 3 1007.1 1007.0 -
20/12:00am 29.2 - - - - E 4 4 2 2 1007.5 1007.4 -
 
Date/Time
EST
Temp
°C
App
Temp
°C
Dew
Point
°C
Rel
Hum
%
Delta-T
°C
Wind Press
QNH
hPa
Press
MSL
hPa
Rain since
9am
mm
Dir  Spd
km/h
Gust
km/h
Spd
kts
Gust
kts
19/11:30pm 29.2 - - - - E 4 6 2 3 1007.8 1007.7 -
19/11:00pm 29.3 - - - - E 4 6 2 3 1008.2 1008.1 -
19/10:30pm 29.4 - - - - ESE 6 9 3 5 1008.1 1008.0 -
19/10:00pm 29.4 - - - - E 6 9 3 5 1008.0 1007.9 -
19/09:30pm 29.4 - - - - E 6 6 3 3 1007.8 1007.7 -
19/09:00pm 29.5 - - - - E 6 7 3 4 1007.7 1007.6 -
19/08:30pm 29.4 - - - - ESE 7 9 4 5 1007.3 1007.2 -
19/08:00pm 29.4 - - - - ESE 7 11 4 6 1007.1 1007.0 -

Other formats

Comma delimited format used in spreadsheet applications
http://www.bom.gov.au/fwo/IDQ60801/IDQ60801.94293.axf

JavaScript Object Notation format (JSON) in row-major order
http://www.bom.gov.au/fwo/IDQ60801/IDQ60801.94293.json

Data quality

Most of these data are generated automatically and are frequently updated. Quality checks on data are not normally performed. It is possible for incorrect values to appear. Refer to information at About Latest Weather Observations and please check the disclaimer before using these data.